Time;durP1;ratioP1;P1;durP2;ratioP2;P2;SDS_P1;SDS_P2;PMS_P1;PMS_P2;Temp;Humidity;BMP_temperature;BMP_pressure;BME280_temperature;BME280_humidity;BME280_pressure;Samples;Min_cycle;Max_cycle;Signal;HPM_P1;HPM_P2
2023/08/22 00:02:05;;;;;;;2.40;2.20;;;;;;;;;;5032711;28;20205;-50
2023/08/22 00:04:31;;;;;;;3.50;2.37;;;;;;;;;;5032992;28;20220;-50
2023/08/22 00:06:57;;;;;;;3.67;2.40;;;;;;;;;;5033067;28;20242;-50
2023/08/22 00:09:24;;;;;;;3.43;2.03;;;;;;;;;;5033171;28;20239;-50
2023/08/22 00:11:51;;;;;;;3.37;2.20;;;;;;;;;;5032924;28;20703;-50
2023/08/22 00:14:17;;;;;;;4.17;2.07;;;;;;;;;;5032979;28;20207;-50
2023/08/22 00:16:43;;;;;;;3.67;2.23;;;;;;;;;;5032884;28;20195;-51
2023/08/22 00:19:09;;;;;;;2.43;2.00;;;;;;;;;;5032817;28;20206;-50
2023/08/22 00:21:36;;;;;;;3.17;2.40;;;;;;;;;;5032886;28;20195;-50
2023/08/22 00:24:03;;;;;;;4.60;2.20;;;;;;;;;;5032728;28;20195;-51
2023/08/22 00:26:29;;;;;;;3.40;2.17;;;;;;;;;;5032363;28;20234;-50
2023/08/22 00:28:56;;;;;;;3.83;2.00;;;;;;;;;;5032465;28;20275;-50
2023/08/22 00:31:22;;;;;;;2.80;2.23;;;;;;;;;;5032558;28;20218;-51
2023/08/22 00:33:48;;;;;;;3.07;2.43;;;;;;;;;;5032715;28;20341;-52
2023/08/22 00:36:14;;;;;;;3.20;2.30;;;;;;;;;;5032472;28;20653;-51
2023/08/22 00:38:40;;;;;;;2.77;2.30;;;;;;;;;;5032330;28;20828;-51
2023/08/22 00:41:07;;;;;;;2.87;2.20;;;;;;;;;;5032283;28;20242;-51
2023/08/22 00:43:33;;;;;;;3.53;2.00;;;;;;;;;;5014302;28;20214;-51
2023/08/22 00:46:00;;;;;;;3.83;2.10;;;;;;;;;;5032215;28;20235;-51
2023/08/22 00:48:26;;;;;;;2.57;2.37;;;;;;;;;;5032331;28;20228;-51
2023/08/22 00:50:52;;;;;;;3.93;2.20;;;;;;;;;;5032337;28;20247;-51
2023/08/22 00:53:18;;;;;;;4.50;2.47;;;;;;;;;;5031200;28;20202;-51
2023/08/22 00:55:44;;;;;;;6.00;2.60;;;;;;;;;;5032231;28;20206;-51
2023/08/22 00:58:10;;;;;;;2.77;2.10;;;;;;;;;;5032186;28;20562;-51
2023/08/22 01:00:37;;;;;;;3.77;2.20;;;;;;;;;;5032084;28;20763;-51
2023/08/22 01:03:05;;;;;;;3.07;2.20;;;;;;;;;;5032055;28;20233;-51
2023/08/22 01:05:34;;;;;;;3.83;2.43;;;;;;;;;;5032012;28;20891;-51
2023/08/22 01:08:03;;;;;;;4.03;2.30;;;;;;;;;;5031802;28;20205;-51
2023/08/22 01:10:32;;;;;;;4.87;2.50;;;;;;;;;;5031872;28;20288;-51
2023/08/22 01:13:00;;;;;;;3.23;2.10;;;;;;;;;;5031567;28;20201;-51
2023/08/22 01:15:28;;;;;;;5.50;2.60;;;;;;;;;;5031827;28;20552;-52
2023/08/22 01:17:54;;;;;;;3.63;2.10;;;;;;;;;;5031852;28;20258;-51
2023/08/22 01:20:22;;;;;;;3.30;1.97;;;;;;;;;;5031543;28;20660;-51
2023/08/22 01:22:49;;;;;;;3.50;2.20;;;;;;;;;;5031619;28;20260;-51
2023/08/22 01:25:16;;;;;;;2.57;2.23;;;;;;;;;;5031509;28;20306;-51
2023/08/22 01:27:46;;;;;;;3.60;2.20;;;;;;;;;;5031692;28;20199;-51
2023/08/22 01:30:16;;;;;;;5.07;3.60;;;;;;;;;;5031638;28;20206;-51
2023/08/22 01:32:44;;;;;;;4.83;2.40;;;;;;;;;;5031384;28;20193;-51
2023/08/22 01:35:12;;;;;;;3.90;2.40;;;;;;;;;;5031494;28;20268;-51
2023/08/22 01:37:39;;;;;;;3.23;1.80;;;;;;;;;;5031632;28;20216;-51
2023/08/22 01:40:08;;;;;;;3.00;2.40;;;;;;;;;;5031122;28;20684;-52
2023/08/22 01:42:34;;;;;;;4.00;2.50;;;;;;;;;;5031232;28;20218;-50
2023/08/22 01:45:00;;;;;;;2.60;2.27;;;;;;;;;;5030883;28;20268;-51
2023/08/22 01:47:26;;;;;;;3.17;2.13;;;;;;;;;;5031516;28;20658;-51
2023/08/22 01:49:52;;;;;;;3.30;2.23;;;;;;;;;;5031279;28;20625;-51
2023/08/22 01:52:18;;;;;;;3.00;2.23;;;;;;;;;;5031082;28;20200;-51
2023/08/22 01:54:44;;;;;;;4.83;1.90;;;;;;;;;;5031244;28;20200;-51
2023/08/22 01:57:11;;;;;;;3.13;2.20;;;;;;;;;;5031180;28;20194;-51
2023/08/22 01:59:37;;;;;;;3.73;2.17;;;;;;;;;;5031335;28;20236;-51
2023/08/22 02:02:03;;;;;;;2.40;1.90;;;;;;;;;;5030867;28;20222;-51
2023/08/22 02:04:29;;;;;;;2.77;2.30;;;;;;;;;;5030782;28;20196;-51
2023/08/22 02:06:55;;;;;;;2.87;2.50;;;;;;;;;;5031022;28;20268;-51
2023/08/22 02:09:21;;;;;;;4.17;2.20;;;;;;;;;;5030987;28;20267;-51
2023/08/22 02:11:47;;;;;;;2.40;2.17;;;;;;;;;;5030692;28;20226;-51
2023/08/22 02:14:15;;;;;;;2.60;2.30;;;;;;;;;;5030592;28;20205;-51
2023/08/22 02:16:41;;;;;;;4.03;2.03;;;;;;;;;;5031002;28;20286;-50
2023/08/22 02:19:07;;;;;;;4.67;2.30;;;;;;;;;;5030626;28;20694;-51
2023/08/22 02:21:33;;;;;;;3.10;2.07;;;;;;;;;;5030917;28;20202;-51
2023/08/22 02:23:59;;;;;;;2.50;2.00;;;;;;;;;;5030685;28;20204;-51
2023/08/22 02:26:26;;;;;;;4.10;2.13;;;;;;;;;;5030861;28;20703;-52
2023/08/22 02:28:53;;;;;;;2.77;2.20;;;;;;;;;;5030758;28;20205;-51
2023/08/22 02:31:21;;;;;;;2.80;1.90;;;;;;;;;;5030594;28;20209;-51
2023/08/22 02:33:47;;;;;;;3.73;2.23;;;;;;;;;;5030750;28;20266;-51
2023/08/22 02:36:13;;;;;;;2.63;2.10;;;;;;;;;;5030548;28;20197;-51
2023/08/22 02:38:39;;;;;;;3.17;1.90;;;;;;;;;;5030718;28;20206;-51
2023/08/22 02:41:05;;;;;;;4.07;2.10;;;;;;;;;;5030449;28;20289;-51
2023/08/22 02:43:31;;;;;;;5.30;2.20;;;;;;;;;;5030519;28;20301;-51
2023/08/22 02:45:57;;;;;;;4.53;2.10;;;;;;;;;;5030195;28;20236;-51
2023/08/22 02:48:24;;;;;;;2.67;2.00;;;;;;;;;;5030622;28;20536;-50
2023/08/22 02:50:50;;;;;;;2.20;2.00;;;;;;;;;;5030392;28;20716;-51
2023/08/22 02:53:16;;;;;;;2.87;2.40;;;;;;;;;;5030378;28;20240;-51
2023/08/22 02:55:46;;;;;;;2.27;2.07;;;;;;;;;;5030449;28;20683;-51
2023/08/22 02:58:12;;;;;;;3.10;2.37;;;;;;;;;;5030397;28;20223;-51
2023/08/22 03:00:38;;;;;;;2.50;2.20;;;;;;;;;;5030293;28;20653;-51
2023/08/22 03:03:05;;;;;;;3.40;1.90;;;;;;;;;;5030219;28;20193;-51
2023/08/22 03:05:32;;;;;;;2.60;2.40;;;;;;;;;;5030370;28;20234;-51
2023/08/22 03:07:58;;;;;;;3.37;2.50;;;;;;;;;;5030315;28;20266;-51
2023/08/22 03:10:24;;;;;;;5.07;2.53;;;;;;;;;;5030545;28;20623;-51
2023/08/22 03:12:50;;;;;;;2.47;2.27;;;;;;;;;;5030379;28;20207;-51
2023/08/22 03:15:16;;;;;;;2.50;2.10;;;;;;;;;;5030902;28;20285;-51
2023/08/22 03:17:42;;;;;;;3.57;2.27;;;;;;;;;;5034200;28;20199;-51
2023/08/22 03:20:09;;;;;;;3.37;2.37;;;;;;;;;;5034181;28;20267;-51
2023/08/22 03:22:36;;;;;;;2.40;2.17;;;;;;;;;;5034101;28;20231;-51
2023/08/22 03:25:02;;;;;;;3.17;2.53;;;;;;;;;;5033788;28;20347;-51
2023/08/22 03:27:28;;;;;;;3.17;2.20;;;;;;;;;;5033911;28;20199;-51
2023/08/22 03:29:54;;;;;;;4.50;2.53;;;;;;;;;;5034121;28;20209;-51
2023/08/22 03:32:20;;;;;;;3.37;2.10;;;;;;;;;;5033571;28;20296;-51
2023/08/22 03:34:46;;;;;;;2.93;2.20;;;;;;;;;;5033821;28;20198;-51
2023/08/22 03:37:12;;;;;;;3.37;2.33;;;;;;;;;;5033714;28;20756;-51
2023/08/22 03:39:40;;;;;;;2.40;2.20;;;;;;;;;;5033988;28;20277;-51
2023/08/22 03:42:06;;;;;;;3.73;2.67;;;;;;;;;;5033583;28;20218;-52
2023/08/22 03:44:32;;;;;;;3.43;2.50;;;;;;;;;;5033594;28;20356;-51
2023/08/22 03:46:58;;;;;;;2.73;2.47;;;;;;;;;;5033549;28;20268;-51
2023/08/22 03:49:24;;;;;;;3.47;2.23;;;;;;;;;;5033680;28;20201;-51
2023/08/22 03:51:50;;;;;;;2.80;2.30;;;;;;;;;;5033600;28;20222;-51
2023/08/22 03:54:16;;;;;;;5.57;2.67;;;;;;;;;;5033260;28;20203;-51
2023/08/22 03:56:43;;;;;;;3.60;2.33;;;;;;;;;;5033185;28;20192;-51
2023/08/22 03:59:09;;;;;;;2.83;2.20;;;;;;;;;;5033448;28;20211;-51
2023/08/22 04:01:35;;;;;;;3.60;2.20;;;;;;;;;;5033313;28;20199;-52
2023/08/22 04:04:01;;;;;;;4.27;2.00;;;;;;;;;;5033203;28;20294;-51
2023/08/22 04:06:27;;;;;;;3.00;2.40;;;;;;;;;;5033155;28;20260;-51
2023/08/22 04:08:53;;;;;;;3.73;2.27;;;;;;;;;;5033202;28;20235;-51
2023/08/22 04:11:19;;;;;;;4.77;2.40;;;;;;;;;;5032896;28;20196;-51
2023/08/22 04:13:47;;;;;;;4.57;2.30;;;;;;;;;;5032947;28;20690;-51
2023/08/22 04:16:13;;;;;;;3.87;2.30;;;;;;;;;;5032876;28;20607;-51
2023/08/22 04:18:39;;;;;;;4.03;2.30;;;;;;;;;;5032968;28;20198;-51
2023/08/22 04:21:05;;;;;;;2.57;2.30;;;;;;;;;;5032880;28;20254;-51
2023/08/22 04:23:31;;;;;;;2.60;2.13;;;;;;;;;;5032844;28;20202;-51
2023/08/22 04:25:57;;;;;;;2.70;2.50;;;;;;;;;;5032610;28;20236;-51
2023/08/22 04:28:23;;;;;;;4.33;2.50;;;;;;;;;;5032242;28;20199;-51
2023/08/22 04:30:50;;;;;;;3.27;2.33;;;;;;;;;;5032491;28;20653;-51
2023/08/22 04:33:16;;;;;;;2.60;2.40;;;;;;;;;;5032474;28;20234;-51
2023/08/22 04:35:43;;;;;;;3.33;2.20;;;;;;;;;;5032661;28;20236;-51
2023/08/22 04:38:09;;;;;;;3.47;2.40;;;;;;;;;;5032654;28;20201;-52
2023/08/22 04:40:35;;;;;;;6.40;2.60;;;;;;;;;;5032656;28;20201;-52
2023/08/22 04:43:01;;;;;;;8.03;3.10;;;;;;;;;;5032315;28;20218;-52
2023/08/22 04:45:27;;;;;;;5.30;2.70;;;;;;;;;;5032080;28;20598;-53
2023/08/22 04:47:54;;;;;;;4.37;2.87;;;;;;;;;;5032434;28;20559;-52
2023/08/22 04:50:20;;;;;;;3.00;2.63;;;;;;;;;;5032062;28;20205;-51
2023/08/22 04:52:46;;;;;;;3.00;2.70;;;;;;;;;;5032117;28;20661;-52
2023/08/22 04:55:12;;;;;;;3.00;2.40;;;;;;;;;;5032001;28;20613;-52
2023/08/22 04:57:38;;;;;;;2.60;2.40;;;;;;;;;;5032494;28;20198;-52
2023/08/22 05:00:08;;;;;;;2.80;2.20;;;;;;;;;;5032067;28;20227;-54
2023/08/22 05:02:34;;;;;;;4.67;2.77;;;;;;;;;;5014906;28;20280;-52
2023/08/22 05:05:03;;;;;;;3.23;2.40;;;;;;;;;;5031868;28;20304;-53
2023/08/22 05:07:29;;;;;;;3.00;2.43;;;;;;;;;;5032083;28;20202;-53
2023/08/22 05:09:56;;;;;;;3.03;2.40;;;;;;;;;;5031905;28;20199;-52
2023/08/22 05:12:22;;;;;;;5.50;2.70;;;;;;;;;;5031633;28;20271;-52
2023/08/22 05:14:48;;;;;;;3.80;2.60;;;;;;;;;;5031630;28;20782;-52
2023/08/22 05:17:14;;;;;;;3.40;2.50;;;;;;;;;;5031614;28;20203;-53
2023/08/22 05:19:41;;;;;;;5.00;2.70;;;;;;;;;;5031706;28;20686;-52
2023/08/22 05:22:08;;;;;;;3.00;2.70;;;;;;;;;;5031673;28;20202;-52
2023/08/22 05:24:34;;;;;;;5.03;2.80;;;;;;;;;;5031401;28;20285;-53
2023/08/22 05:27:00;;;;;;;4.80;3.30;;;;;;;;;;5025033;28;20315;-52
2023/08/22 05:29:27;;;;;;;3.67;2.70;;;;;;;;;;5051356;28;20184;-52
2023/08/22 05:31:53;;;;;;;2.93;2.50;;;;;;;;;;5051274;28;20202;-52
2023/08/22 05:34:19;;;;;;;5.40;2.37;;;;;;;;;;5050953;28;20300;-52
2023/08/22 05:36:45;;;;;;;4.33;2.67;;;;;;;;;;5049246;28;20263;-49
2023/08/22 05:39:12;;;;;;;3.83;2.73;;;;;;;;;;5048838;28;20204;-53
2023/08/22 05:41:38;;;;;;;4.53;2.73;;;;;;;;;;5051264;28;20220;-51
2023/08/22 05:44:05;;;;;;;4.23;2.80;;;;;;;;;;5050884;28;20256;-51
2023/08/22 05:46:31;;;;;;;8.47;2.60;;;;;;;;;;5050941;28;20714;-50
2023/08/22 05:48:57;;;;;;;5.10;2.37;;;;;;;;;;5048738;28;20229;-51
2023/08/22 05:51:23;;;;;;;4.63;2.63;;;;;;;;;;5050681;28;20198;-49
2023/08/22 05:53:49;;;;;;;4.33;2.40;;;;;;;;;;5050724;28;20721;-50
2023/08/22 05:56:16;;;;;;;7.23;2.87;;;;;;;;;;5050529;28;20189;-51
2023/08/22 05:58:42;;;;;;;5.57;3.00;;;;;;;;;;5050915;28;20229;-51
2023/08/22 06:01:09;;;;;;;3.70;2.70;;;;;;;;;;5050768;28;20227;-51
2023/08/22 06:03:35;;;;;;;3.20;2.53;;;;;;;;;;5050745;28;20258;-51
2023/08/22 06:06:01;;;;;;;5.17;2.70;;;;;;;;;;5050597;28;20315;-52
2023/08/22 06:08:28;;;;;;;3.97;2.63;;;;;;;;;;5050553;28;20200;-50
2023/08/22 06:10:54;;;;;;;3.03;2.40;;;;;;;;;;5050654;28;20262;-52
2023/08/22 06:13:21;;;;;;;5.83;2.70;;;;;;;;;;5032449;28;20305;-51
2023/08/22 06:15:47;;;;;;;4.90;3.20;;;;;;;;;;5050443;28;20202;-51
2023/08/22 06:18:13;;;;;;;4.43;2.70;;;;;;;;;;5050408;28;20277;-51
2023/08/22 06:20:39;;;;;;;3.57;2.50;;;;;;;;;;5050454;28;20626;-51
2023/08/22 06:23:06;;;;;;;5.13;2.73;;;;;;;;;;5050104;28;20249;-51
2023/08/22 06:25:32;;;;;;;3.10;2.70;;;;;;;;;;5050182;28;20223;-51
2023/08/22 06:27:58;;;;;;;9.60;2.87;;;;;;;;;;5050108;28;20210;-51
2023/08/22 06:30:26;;;;;;;3.40;2.60;;;;;;;;;;5049201;28;20206;-51
2023/08/22 06:32:52;;;;;;;3.67;2.50;;;;;;;;;;5050122;28;20231;-50
2023/08/22 06:35:18;;;;;;;6.07;2.70;;;;;;;;;;5050024;28;20356;-51
2023/08/22 06:37:44;;;;;;;6.10;2.80;;;;;;;;;;5050342;28;20210;-51
2023/08/22 06:40:11;;;;;;;5.03;2.23;;;;;;;;;;5050116;28;20207;-51
2023/08/22 06:42:37;;;;;;;3.30;2.47;;;;;;;;;;5050133;28;20220;-51
2023/08/22 06:45:04;;;;;;;5.00;3.00;;;;;;;;;;5049673;28;20702;-51
2023/08/22 06:47:32;;;;;;;8.10;3.10;;;;;;;;;;5050092;28;20212;-50
2023/08/22 06:49:58;;;;;;;4.80;2.70;;;;;;;;;;5050323;28;20222;-50
2023/08/22 06:52:24;;;;;;;4.00;3.20;;;;;;;;;;5054398;28;20286;-52
2023/08/22 06:54:50;;;;;;;4.00;3.13;;;;;;;;;;5054213;28;20238;-51
2023/08/22 06:57:16;;;;;;;3.83;2.80;;;;;;;;;;5053980;28;20199;-50
2023/08/22 06:59:42;;;;;;;5.67;2.50;;;;;;;;;;5054098;28;20271;-49
2023/08/22 07:02:08;;;;;;;6.20;2.63;;;;;;;;;;5054114;28;20673;-49
2023/08/22 07:04:35;;;;;;;5.03;2.73;;;;;;;;;;5053940;28;20203;-51
2023/08/22 07:07:02;;;;;;;3.73;2.70;;;;;;;;;;5053876;28;20227;-51
2023/08/22 07:09:28;;;;;;;2.67;2.47;;;;;;;;;;5054282;28;20208;-51
2023/08/22 07:11:54;;;;;;;4.20;2.50;;;;;;;;;;5053969;28;20223;-49
2023/08/22 07:14:20;;;;;;;3.70;2.50;;;;;;;;;;5053670;28;20224;-50
2023/08/22 07:16:46;;;;;;;8.50;2.50;;;;;;;;;;5053476;28;20188;-51
2023/08/22 07:19:12;;;;;;;3.53;2.50;;;;;;;;;;5053761;28;20192;-50
2023/08/22 07:21:40;;;;;;;4.10;2.43;;;;;;;;;;5053730;28;20299;-51
2023/08/22 07:24:06;;;;;;;4.10;3.03;;;;;;;;;;5053659;28;20287;-51
2023/08/22 07:26:32;;;;;;;4.40;2.60;;;;;;;;;;5053441;28;20269;-50
2023/08/22 07:28:58;;;;;;;3.93;2.50;;;;;;;;;;5053409;28;20231;-51
2023/08/22 07:31:24;;;;;;;2.97;2.57;;;;;;;;;;5053520;28;20666;-51
2023/08/22 07:33:50;;;;;;;5.53;2.57;;;;;;;;;;5053531;28;20255;-51
2023/08/22 07:36:17;;;;;;;5.77;2.40;;;;;;;;;;5053357;28;20198;-51
2023/08/22 07:38:44;;;;;;;6.40;2.60;;;;;;;;;;5053388;28;20657;-51
2023/08/22 07:41:10;;;;;;;7.53;2.50;;;;;;;;;;5053337;28;20742;-50
2023/08/22 07:43:36;;;;;;;5.50;2.50;;;;;;;;;;5053173;28;20623;-49
2023/08/22 07:46:03;;;;;;;3.80;2.37;;;;;;;;;;5053327;28;20216;-52
2023/08/22 07:48:29;;;;;;;3.53;2.30;;;;;;;;;;5053321;28;20200;-51
2023/08/22 07:50:55;;;;;;;7.60;2.70;;;;;;;;;;5053559;28;20196;-49
2023/08/22 07:53:21;;;;;;;3.97;2.20;;;;;;;;;;5053277;28;20346;-50
2023/08/22 07:55:51;;;;;;;4.17;2.20;;;;;;;;;;5053336;28;20303;-50
2023/08/22 07:58:17;;;;;;;3.43;2.27;;;;;;;;;;5053144;28;20231;-49
2023/08/22 08:00:47;;;;;;;4.67;2.30;;;;;;;;;;5053010;28;20254;-51
2023/08/22 08:03:13;;;;;;;3.93;2.20;;;;;;;;;;5053226;28;20197;-51
2023/08/22 08:05:39;;;;;;;6.57;2.40;;;;;;;;;;5053207;28;20282;-50
2023/08/22 08:08:05;;;;;;;4.17;2.27;;;;;;;;;;5053123;28;20302;-50
2023/08/22 08:10:31;;;;;;;5.73;2.30;;;;;;;;;;5052910;28;20395;-51
2023/08/22 08:12:58;;;;;;;8.13;2.70;;;;;;;;;;5053170;28;20224;-49
2023/08/22 08:15:25;;;;;;;3.60;2.23;;;;;;;;;;5052899;28;20287;-50
2023/08/22 08:17:51;;;;;;;3.93;2.20;;;;;;;;;;5052814;28;20193;-50
2023/08/22 08:20:17;;;;;;;4.13;2.27;;;;;;;;;;5052708;28;20271;-51
2023/08/22 08:22:43;;;;;;;4.53;2.13;;;;;;;;;;5052730;28;20222;-50
2023/08/22 08:25:09;;;;;;;6.73;2.30;;;;;;;;;;5052776;28;20256;-50
2023/08/22 08:27:35;;;;;;;4.10;2.03;;;;;;;;;;5052147;28;20288;-51
2023/08/22 08:30:05;;;;;;;3.10;2.03;;;;;;;;;;5052556;28;20197;-50
2023/08/22 08:32:31;;;;;;;6.50;2.30;;;;;;;;;;5052505;28;20213;-50
2023/08/22 08:34:57;;;;;;;4.10;2.20;;;;;;;;;;5052544;28;20202;-52
2023/08/22 08:37:23;;;;;;;7.37;2.50;;;;;;;;;;5052400;28;20293;-51
2023/08/22 08:39:49;;;;;;;4.77;2.17;;;;;;;;;;5036580;28;20210;-52
2023/08/22 08:42:15;;;;;;;6.47;2.57;;;;;;;;;;5031968;28;20223;-51
2023/08/22 08:44:41;;;;;;;7.03;2.73;;;;;;;;;;5032087;28;20248;-51
2023/08/22 08:47:10;;;;;;;3.67;2.57;;;;;;;;;;5032021;28;20231;-50
2023/08/22 08:49:36;;;;;;;3.57;2.50;;;;;;;;;;5031999;28;20674;-50
2023/08/22 08:52:02;;;;;;;5.17;2.63;;;;;;;;;;5031992;28;20198;-50
2023/08/22 08:54:28;;;;;;;4.90;2.70;;;;;;;;;;5031927;28;20295;-52
2023/08/22 08:56:55;;;;;;;4.20;2.40;;;;;;;;;;5032284;28;20194;-49
2023/08/22 08:59:21;;;;;;;3.97;2.40;;;;;;;;;;5031755;28;20204;-52
2023/08/22 09:01:47;;;;;;;5.60;2.70;;;;;;;;;;5032041;28;20203;-52
2023/08/22 09:04:15;;;;;;;4.43;2.30;;;;;;;;;;5031827;28;20208;-51
2023/08/22 09:06:41;;;;;;;4.30;2.23;;;;;;;;;;5032067;28;20225;-52
2023/08/22 09:09:08;;;;;;;6.67;2.73;;;;;;;;;;5031858;28;20196;-52
2023/08/22 09:11:34;;;;;;;5.73;2.60;;;;;;;;;;5031856;28;20207;-52
2023/08/22 09:14:01;;;;;;;5.17;2.40;;;;;;;;;;5030808;28;20643;-52
2023/08/22 09:16:27;;;;;;;4.13;2.63;;;;;;;;;;5031637;28;20250;-53
2023/08/22 09:18:58;;;;;;;4.07;2.47;;;;;;;;;;5031623;28;20255;-53
2023/08/22 09:21:25;;;;;;;3.40;1.80;;;;;;;;;;5031767;28;20196;-51
2023/08/22 09:23:52;;;;;;;6.70;2.33;;;;;;;;;;5031489;28;20204;-51
2023/08/22 09:26:21;;;;;;;3.53;1.90;;;;;;;;;;5031299;28;20264;-52
2023/08/22 09:28:48;;;;;;;3.60;2.07;;;;;;;;;;5031474;28;20197;-52
2023/08/22 09:31:21;;;;;;;3.67;1.80;;;;;;;;;;5031295;28;20203;-52
2023/08/22 09:33:48;;;;;;;3.03;1.77;;;;;;;;;;5031208;28;20285;-49
2023/08/22 09:36:18;;;;;;;4.30;1.90;;;;;;;;;;5031082;28;20651;-50
2023/08/22 09:38:53;;;;;;;2.60;1.70;;;;;;;;;;5031437;28;20189;-49
2023/08/22 09:41:22;;;;;;;3.03;1.70;;;;;;;;;;5031061;28;20213;-51
2023/08/22 09:43:48;;;;;;;4.47;1.80;;;;;;;;;;5028430;28;20639;-54
2023/08/22 09:46:15;;;;;;;5.30;2.33;;;;;;;;;;5030647;28;20796;-51
2023/08/22 09:48:43;;;;;;;4.77;2.10;;;;;;;;;;5031051;28;20207;-52
2023/08/22 09:51:09;;;;;;;4.37;2.20;;;;;;;;;;5031374;28;20260;-50
2023/08/22 09:53:37;;;;;;;4.40;2.20;;;;;;;;;;5031131;28;20229;-51
2023/08/22 09:56:04;;;;;;;5.97;2.07;;;;;;;;;;5030907;28;20250;-52
2023/08/22 09:58:32;;;;;;;3.27;1.90;;;;;;;;;;5030929;28;20286;-51
2023/08/22 10:00:59;;;;;;;5.60;2.13;;;;;;;;;;5026634;28;20579;-51
2023/08/22 10:03:26;;;;;;;5.70;2.40;;;;;;;;;;5030639;28;20206;-51
2023/08/22 10:05:52;;;;;;;3.60;1.90;;;;;;;;;;5029957;28;20762;-49
2023/08/22 10:08:18;;;;;;;5.03;1.83;;;;;;;;;;5030386;28;20203;-51
2023/08/22 10:10:47;;;;;;;3.73;1.63;;;;;;;;;;5030470;28;20199;-51
2023/08/22 10:13:16;;;;;;;5.97;2.10;;;;;;;;;;5030148;28;20208;-51
2023/08/22 10:15:42;;;;;;;3.87;2.07;;;;;;;;;;5030621;28;20204;-51
2023/08/22 10:18:08;;;;;;;3.73;1.80;;;;;;;;;;5030800;28;20269;-51
2023/08/22 10:20:35;;;;;;;3.97;1.70;;;;;;;;;;5030352;28;20291;-51
2023/08/22 10:23:01;;;;;;;4.00;1.77;;;;;;;;;;5030725;28;20204;-51
2023/08/22 10:25:42;;;;;;;4.80;1.83;;;;;;;;;;5030260;28;20247;-54
2023/08/22 10:28:08;;;;;;;4.40;1.73;;;;;;;;;;5030975;28;20262;-52
2023/08/22 10:30:56;;;;;;;3.27;1.60;;;;;;;;;;5030350;28;20231;-51
2023/08/22 10:33:28;;;;;;;5.33;1.53;;;;;;;;;;5030236;28;20669;-52
2023/08/22 10:36:04;;;;;;;1.70;1.17;;;;;;;;;;5030586;28;20194;-51
2023/08/22 10:38:47;;;;;;;2.20;1.30;;;;;;;;;;5030198;28;20222;-52
2023/08/22 10:41:13;;;;;;;2.43;1.23;;;;;;;;;;5030387;28;20193;-50
2023/08/22 10:43:39;;;;;;;5.50;1.87;;;;;;;;;;5030330;28;20308;-52
2023/08/22 10:46:05;;;;;;;3.27;1.50;;;;;;;;;;5030181;28;20263;-51
2023/08/22 10:48:33;;;;;;;4.70;1.37;;;;;;;;;;5030121;28;20222;-51
2023/08/22 10:51:06;;;;;;;3.23;1.87;;;;;;;;;;5030128;28;20241;-51
2023/08/22 10:53:41;;;;;;;4.10;1.60;;;;;;;;;;5030347;28;20193;-50
2023/08/22 10:56:17;;;;;;;4.03;1.37;;;;;;;;;;5030552;28;20224;-51
2023/08/22 10:58:43;;;;;;;2.57;1.30;;;;;;;;;;5030322;28;20279;-51
2023/08/22 11:01:14;;;;;;;4.97;1.60;;;;;;;;;;5030236;28;20211;-51
2023/08/22 11:03:43;;;;;;;2.17;1.30;;;;;;;;;;5030505;28;20205;-50
2023/08/22 11:06:12;;;;;;;2.27;1.13;;;;;;;;;;5030294;28;20299;-51
2023/08/22 11:08:39;;;;;;;2.00;1.10;;;;;;;;;;5030084;28;20221;-51
2023/08/22 11:11:05;;;;;;;2.07;1.30;;;;;;;;;;5030244;28;20202;-51
2023/08/22 11:13:35;;;;;;;3.00;1.30;;;;;;;;;;5029716;28;20574;-51
2023/08/22 11:16:02;;;;;;;2.67;1.40;;;;;;;;;;5029913;28;20214;-51
2023/08/22 11:18:28;;;;;;;3.27;1.60;;;;;;;;;;5029597;28;20195;-51
2023/08/22 11:20:56;;;;;;;4.67;1.57;;;;;;;;;;5030279;28;20199;-50
2023/08/22 11:23:22;;;;;;;4.00;1.40;;;;;;;;;;5029348;28;20688;-50
2023/08/22 11:25:48;;;;;;;2.47;1.40;;;;;;;;;;5029730;28;20221;-52
2023/08/22 11:28:14;;;;;;;2.67;1.40;;;;;;;;;;5029703;28;20226;-50
2023/08/22 11:30:40;;;;;;;6.47;1.50;;;;;;;;;;5030076;28;20197;-51
2023/08/22 11:33:06;;;;;;;3.83;1.47;;;;;;;;;;5029895;28;20197;-50
2023/08/22 11:35:32;;;;;;;3.10;1.10;;;;;;;;;;5029683;28;20704;-51
2023/08/22 11:38:01;;;;;;;3.50;1.00;;;;;;;;;;5033162;28;20194;-51
2023/08/22 11:40:27;;;;;;;2.93;1.33;;;;;;;;;;5033383;28;20632;-51
2023/08/22 11:42:58;;;;;;;1.80;1.07;;;;;;;;;;5033683;28;20222;-51
2023/08/22 11:45:25;;;;;;;2.47;1.00;;;;;;;;;;5033213;28;20246;-50
2023/08/22 11:47:51;;;;;;;2.70;0.87;;;;;;;;;;5033402;28;20211;-52
2023/08/22 11:50:18;;;;;;;1.87;1.03;;;;;;;;;;5032831;28;20192;-51
2023/08/22 11:52:45;;;;;;;5.20;1.10;;;;;;;;;;5033102;28;20286;-53
2023/08/22 11:55:12;;;;;;;3.47;1.20;;;;;;;;;;5033323;28;20197;-52
2023/08/22 11:57:41;;;;;;;2.47;1.00;;;;;;;;;;5033343;28;20199;-52
2023/08/22 12:00:08;;;;;;;1.33;1.03;;;;;;;;;;5033139;28;20229;-52
2023/08/22 12:02:34;;;;;;;1.73;1.00;;;;;;;;;;5015072;28;20201;-51
2023/08/22 12:05:00;;;;;;;2.57;1.10;;;;;;;;;;5032975;28;20200;-50
2023/08/22 12:07:26;;;;;;;3.03;1.17;;;;;;;;;;5032238;28;20226;-51
2023/08/22 12:09:59;;;;;;;3.10;1.10;;;;;;;;;;5032604;28;20212;-51
2023/08/22 12:12:27;;;;;;;1.60;1.20;;;;;;;;;;5033082;28;20223;-51
2023/08/22 12:14:53;;;;;;;2.23;1.10;;;;;;;;;;5032934;28;20681;-50
2023/08/22 12:17:19;;;;;;;2.40;1.20;;;;;;;;;;5029106;28;20207;-49
2023/08/22 12:19:45;;;;;;;2.37;1.10;;;;;;;;;;5032884;28;20210;-48
2023/08/22 12:22:11;;;;;;;2.50;1.20;;;;;;;;;;5033142;28;20680;-49
2023/08/22 12:24:37;;;;;;;5.33;3.73;;;;;;;;;;5032972;28;20285;-50
2023/08/22 12:27:03;;;;;;;4.73;1.70;;;;;;;;;;5032889;28;20662;-48
2023/08/22 12:29:30;;;;;;;1.67;1.23;;;;;;;;;;5032586;28;20218;-49
2023/08/22 12:31:56;;;;;;;1.30;1.13;;;;;;;;;;5032270;28;20221;-49
2023/08/22 12:34:22;;;;;;;1.70;1.10;;;;;;;;;;5032239;28;20296;-49
2023/08/22 12:36:48;;;;;;;2.00;1.23;;;;;;;;;;5032837;28;20204;-49
2023/08/22 12:39:14;;;;;;;4.67;1.20;;;;;;;;;;5032565;28;20219;-49
2023/08/22 12:41:40;;;;;;;2.00;1.40;;;;;;;;;;5032154;28;20204;-48
2023/08/22 12:44:07;;;;;;;2.20;1.47;;;;;;;;;;5032129;28;20586;-49
2023/08/22 12:46:34;;;;;;;4.57;1.47;;;;;;;;;;5031987;28;20232;-49
2023/08/22 12:49:00;;;;;;;5.20;1.50;;;;;;;;;;5031053;28;20303;-50
2023/08/22 12:51:26;;;;;;;3.20;1.40;;;;;;;;;;5032450;28;20597;-49
2023/08/22 12:53:52;;;;;;;2.97;1.63;;;;;;;;;;5032283;28;20200;-49
2023/08/22 12:56:18;;;;;;;1.73;1.60;;;;;;;;;;5032322;28;20270;-49
2023/08/22 12:58:44;;;;;;;2.10;1.33;;;;;;;;;;5032295;28;20224;-49
2023/08/22 13:01:10;;;;;;;3.00;2.60;;;;;;;;;;5032337;28;20202;-50
2023/08/22 13:03:38;;;;;;;3.93;1.67;;;;;;;;;;5032135;28;20203;-49
2023/08/22 13:06:04;;;;;;;2.60;1.40;;;;;;;;;;5031763;28;20591;-49
2023/08/22 13:08:30;;;;;;;2.67;1.60;;;;;;;;;;5031716;28;20595;-48
2023/08/22 13:10:56;;;;;;;2.47;1.47;;;;;;;;;;5032015;28;20670;-49
2023/08/22 13:13:22;;;;;;;4.83;1.70;;;;;;;;;;5031775;28;20217;-49
2023/08/22 13:15:49;;;;;;;3.43;1.70;;;;;;;;;;5031971;28;20229;-49
2023/08/22 13:18:15;;;;;;;2.17;1.30;;;;;;;;;;5031604;28;20207;-49
2023/08/22 13:20:42;;;;;;;3.60;1.70;;;;;;;;;;5031810;28;20552;-50
2023/08/22 13:23:08;;;;;;;1.97;1.50;;;;;;;;;;5031925;28;20249;-48
2023/08/22 13:25:34;;;;;;;2.60;1.67;;;;;;;;;;5031612;28;20249;-49
2023/08/22 13:28:00;;;;;;;4.77;2.50;;;;;;;;;;5031667;28;20200;-49
2023/08/22 13:30:28;;;;;;;2.93;1.70;;;;;;;;;;5031384;28;20554;-49
2023/08/22 13:32:54;;;;;;;3.87;1.73;;;;;;;;;;5031766;28;20739;-50
2023/08/22 13:35:20;;;;;;;3.20;2.00;;;;;;;;;;5031263;28;20254;-50
2023/08/22 13:37:47;;;;;;;4.83;1.97;;;;;;;;;;5031207;28;20198;-50
2023/08/22 13:40:13;;;;;;;6.03;1.80;;;;;;;;;;5030986;28;20203;-50
2023/08/22 13:42:40;;;;;;;2.50;1.50;;;;;;;;;;5031350;28;20232;-48
2023/08/22 13:45:06;;;;;;;2.03;1.60;;;;;;;;;;5031228;28;20235;-50
2023/08/22 13:47:32;;;;;;;4.33;1.90;;;;;;;;;;5031263;28;20602;-50
2023/08/22 13:49:58;;;;;;;2.60;1.70;;;;;;;;;;5031111;28;20299;-50
2023/08/22 13:52:24;;;;;;;3.27;1.70;;;;;;;;;;5031502;28;20298;-50
2023/08/22 13:54:52;;;;;;;3.93;2.47;;;;;;;;;;5031307;28;20214;-49
2023/08/22 13:57:18;;;;;;;2.33;1.60;;;;;;;;;;5031268;28;20195;-49
2023/08/22 13:59:44;;;;;;;5.43;1.70;;;;;;;;;;5030574;28;20210;-50
2023/08/22 14:02:10;;;;;;;4.70;1.93;;;;;;;;;;5031410;28;20206;-50
2023/08/22 14:04:36;;;;;;;2.20;1.60;;;;;;;;;;5031032;28;20204;-51
2023/08/22 14:07:02;;;;;;;4.17;1.53;;;;;;;;;;5031154;28;20227;-49
2023/08/22 14:09:28;;;;;;;2.93;1.50;;;;;;;;;;5030986;28;20203;-50
2023/08/22 14:11:56;;;;;;;3.80;1.70;;;;;;;;;;5031357;28;20200;-49
2023/08/22 14:14:22;;;;;;;3.97;1.70;;;;;;;;;;5030973;28;20208;-52
2023/08/22 14:16:48;;;;;;;1.70;1.60;;;;;;;;;;5030893;28;20865;-50
2023/08/22 14:19:14;;;;;;;2.07;1.63;;;;;;;;;;5030811;28;20204;-50
2023/08/22 14:21:40;;;;;;;2.87;1.87;;;;;;;;;;5030837;28;20204;-50
2023/08/22 14:24:06;;;;;;;5.77;2.43;;;;;;;;;;5030753;28;20282;-52
2023/08/22 14:26:32;;;;;;;5.17;1.90;;;;;;;;;;5030467;28;20223;-51
2023/08/22 14:28:59;;;;;;;3.13;1.90;;;;;;;;;;5030701;28;20200;-51
2023/08/22 14:31:25;;;;;;;3.90;1.80;;;;;;;;;;5030792;28;20628;-51
2023/08/22 14:33:51;;;;;;;3.17;2.00;;;;;;;;;;5030913;28;20666;-49
2023/08/22 14:36:17;;;;;;;3.60;1.93;;;;;;;;;;5030638;28;20199;-51
2023/08/22 14:38:43;;;;;;;3.33;1.97;;;;;;;;;;5030658;28;20259;-50
2023/08/22 14:41:10;;;;;;;4.43;2.20;;;;;;;;;;5030705;28;20257;-50